sensor_id;sensor_type;location;lat;lon;timestamp;P1;durP1;ratioP1;P2;durP2;ratioP2
74044;SDS011;62389;51.412;5.436;2022-12-20T00:00:53;3.35;;;1.98;;
74044;SDS011;62389;51.412;5.436;2022-12-20T00:03:18;3.58;;;1.95;;
74044;SDS011;62389;51.412;5.436;2022-12-20T00:05:44;3.92;;;2.22;;
74044;SDS011;62389;51.412;5.436;2022-12-20T00:08:10;3.47;;;2.60;;
74044;SDS011;62389;51.412;5.436;2022-12-20T00:10:36;4.28;;;2.58;;
74044;SDS011;62389;51.412;5.436;2022-12-20T00:13:03;3.40;;;2.20;;
74044;SDS011;62389;51.412;5.436;2022-12-20T00:15:28;3.63;;;1.90;;
74044;SDS011;62389;51.412;5.436;2022-12-20T00:17:55;3.83;;;2.25;;
74044;SDS011;62389;51.412;5.436;2022-12-20T00:20:20;3.50;;;2.33;;
74044;SDS011;62389;51.412;5.436;2022-12-20T00:22:46;4.18;;;2.53;;
74044;SDS011;62389;51.412;5.436;2022-12-20T00:25:11;3.45;;;2.33;;
74044;SDS011;62389;51.412;5.436;2022-12-20T00:27:37;3.35;;;2.60;;
74044;SDS011;62389;51.412;5.436;2022-12-20T00:30:02;3.05;;;2.10;;
74044;SDS011;62389;51.412;5.436;2022-12-20T00:32:28;4.03;;;2.25;;
74044;SDS011;62389;51.412;5.436;2022-12-20T00:34:54;3.03;;;2.03;;
74044;SDS011;62389;51.412;5.436;2022-12-20T00:37:19;6.25;;;2.45;;
74044;SDS011;62389;51.412;5.436;2022-12-20T00:39:45;4.15;;;2.20;;
74044;SDS011;62389;51.412;5.436;2022-12-20T00:42:10;3.67;;;2.38;;
74044;SDS011;62389;51.412;5.436;2022-12-20T00:44:35;4.05;;;1.85;;
74044;SDS011;62389;51.412;5.436;2022-12-20T00:47:01;4.47;;;2.40;;
74044;SDS011;62389;51.412;5.436;2022-12-20T00:49:26;4.20;;;2.28;;
74044;SDS011;62389;51.412;5.436;2022-12-20T00:51:51;3.35;;;2.30;;
74044;SDS011;62389;51.412;5.436;2022-12-20T00:54:17;4.53;;;2.28;;
74044;SDS011;62389;51.412;5.436;2022-12-20T00:56:42;4.45;;;2.15;;
74044;SDS011;62389;51.412;5.436;2022-12-20T00:59:07;2.85;;;1.92;;
74044;SDS011;62389;51.412;5.436;2022-12-20T01:01:33;3.67;;;2.38;;
74044;SDS011;62389;51.412;5.436;2022-12-20T01:03:59;5.20;;;2.00;;
74044;SDS011;62389;51.412;5.436;2022-12-20T01:06:25;3.42;;;2.38;;
74044;SDS011;62389;51.412;5.436;2022-12-20T01:08:51;3.63;;;2.15;;
74044;SDS011;62389;51.412;5.436;2022-12-20T01:11:27;3.08;;;2.38;;
74044;SDS011;62389;51.412;5.436;2022-12-20T01:13:56;3.95;;;2.17;;
74044;SDS011;62389;51.412;5.436;2022-12-20T01:16:34;3.50;;;2.55;;
74044;SDS011;62389;51.412;5.436;2022-12-20T01:19:04;4.47;;;2.22;;
74044;SDS011;62389;51.412;5.436;2022-12-20T01:21:31;3.83;;;2.17;;
74044;SDS011;62389;51.412;5.436;2022-12-20T01:23:57;3.40;;;2.42;;
74044;SDS011;62389;51.412;5.436;2022-12-20T01:26:23;5.55;;;2.90;;
74044;SDS011;62389;51.412;5.436;2022-12-20T01:28:52;5.63;;;2.70;;
74044;SDS011;62389;51.412;5.436;2022-12-20T01:31:19;3.38;;;1.88;;
74044;SDS011;62389;51.412;5.436;2022-12-20T01:33:45;5.25;;;3.53;;
74044;SDS011;62389;51.412;5.436;2022-12-20T01:36:15;3.83;;;2.53;;
74044;SDS011;62389;51.412;5.436;2022-12-20T01:38:49;6.60;;;2.70;;
74044;SDS011;62389;51.412;5.436;2022-12-20T01:41:19;11.95;;;3.30;;
74044;SDS011;62389;51.412;5.436;2022-12-20T01:43:50;3.65;;;2.60;;
74044;SDS011;62389;51.412;5.436;2022-12-20T01:46:27;4.82;;;3.00;;
74044;SDS011;62389;51.412;5.436;2022-12-20T01:49:07;7.47;;;2.83;;
74044;SDS011;62389;51.412;5.436;2022-12-20T01:51:42;3.70;;;2.70;;
74044;SDS011;62389;51.412;5.436;2022-12-20T01:54:10;3.38;;;2.70;;
74044;SDS011;62389;51.412;5.436;2022-12-20T01:56:44;4.65;;;3.22;;
74044;SDS011;62389;51.412;5.436;2022-12-20T01:59:14;4.55;;;2.85;;
74044;SDS011;62389;51.412;5.436;2022-12-20T02:01:40;4.10;;;2.50;;
74044;SDS011;62389;51.412;5.436;2022-12-20T02:04:07;6.82;;;3.03;;
74044;SDS011;62389;51.412;5.436;2022-12-20T02:06:33;6.65;;;3.45;;
74044;SDS011;62389;51.412;5.436;2022-12-20T02:08:58;4.55;;;3.10;;
74044;SDS011;62389;51.412;5.436;2022-12-20T02:16:39;5.55;;;3.05;;
74044;SDS011;62389;51.412;5.436;2022-12-20T02:19:37;4.25;;;2.90;;
74044;SDS011;62389;51.412;5.436;2022-12-20T02:27:33;5.28;;;2.83;;
74044;SDS011;62389;51.412;5.436;2022-12-20T02:30:09;4.97;;;2.83;;
74044;SDS011;62389;51.412;5.436;2022-12-20T02:32:40;4.75;;;2.15;;
74044;SDS011;62389;51.412;5.436;2022-12-20T02:35:12;4.25;;;2.55;;
74044;SDS011;62389;51.412;5.436;2022-12-20T02:37:49;4.10;;;2.50;;
74044;SDS011;62389;51.412;5.436;2022-12-20T02:40:27;4.18;;;3.00;;
74044;SDS011;62389;51.412;5.436;2022-12-20T02:43:02;3.17;;;2.42;;
74044;SDS011;62389;51.412;5.436;2022-12-20T02:45:51;4.55;;;2.25;;
74044;SDS011;62389;51.412;5.436;2022-12-20T02:48:17;4.10;;;2.70;;
74044;SDS011;62389;51.412;5.436;2022-12-20T02:50:44;4.53;;;2.65;;
74044;SDS011;62389;51.412;5.436;2022-12-20T02:53:13;4.97;;;2.50;;
74044;SDS011;62389;51.412;5.436;2022-12-20T02:58:41;3.55;;;2.45;;
74044;SDS011;62389;51.412;5.436;2022-12-20T03:01:21;3.17;;;2.20;;
74044;SDS011;62389;51.412;5.436;2022-12-20T03:03:58;4.40;;;2.60;;
74044;SDS011;62389;51.412;5.436;2022-12-20T03:06:25;5.60;;;2.85;;
74044;SDS011;62389;51.412;5.436;2022-12-20T03:08:51;6.72;;;2.47;;
74044;SDS011;62389;51.412;5.436;2022-12-20T03:11:16;4.70;;;2.40;;
74044;SDS011;62389;51.412;5.436;2022-12-20T03:13:41;3.50;;;2.42;;
74044;SDS011;62389;51.412;5.436;2022-12-20T03:16:07;3.75;;;2.47;;
74044;SDS011;62389;51.412;5.436;2022-12-20T03:18:34;7.05;;;1.90;;
74044;SDS011;62389;51.412;5.436;2022-12-20T03:21:00;2.88;;;2.30;;
74044;SDS011;62389;51.412;5.436;2022-12-20T03:23:25;4.95;;;2.30;;
74044;SDS011;62389;51.412;5.436;2022-12-20T03:25:50;11.45;;;2.92;;
74044;SDS011;62389;51.412;5.436;2022-12-20T03:28:16;3.47;;;2.13;;
74044;SDS011;62389;51.412;5.436;2022-12-20T03:30:41;3.53;;;2.38;;
74044;SDS011;62389;51.412;5.436;2022-12-20T03:33:06;2.88;;;2.08;;
74044;SDS011;62389;51.412;5.436;2022-12-20T03:35:32;4.43;;;2.10;;
74044;SDS011;62389;51.412;5.436;2022-12-20T03:37:57;4.15;;;2.47;;
74044;SDS011;62389;51.412;5.436;2022-12-20T03:40:23;6.60;;;2.70;;
74044;SDS011;62389;51.412;5.436;2022-12-20T03:42:48;3.20;;;2.25;;
74044;SDS011;62389;51.412;5.436;2022-12-20T03:45:14;4.40;;;2.15;;
74044;SDS011;62389;51.412;5.436;2022-12-20T03:47:39;4.25;;;2.40;;
74044;SDS011;62389;51.412;5.436;2022-12-20T03:50:05;3.05;;;2.17;;
74044;SDS011;62389;51.412;5.436;2022-12-20T03:52:31;3.30;;;2.72;;
74044;SDS011;62389;51.412;5.436;2022-12-20T03:54:56;5.03;;;2.20;;
74044;SDS011;62389;51.412;5.436;2022-12-20T03:57:21;3.72;;;2.28;;
74044;SDS011;62389;51.412;5.436;2022-12-20T03:59:47;3.47;;;2.33;;
74044;SDS011;62389;51.412;5.436;2022-12-20T04:02:13;4.90;;;2.63;;
74044;SDS011;62389;51.412;5.436;2022-12-20T04:04:38;4.63;;;2.22;;
74044;SDS011;62389;51.412;5.436;2022-12-20T04:07:04;4.47;;;2.35;;
74044;SDS011;62389;51.412;5.436;2022-12-20T04:09:29;4.72;;;2.65;;
74044;SDS011;62389;51.412;5.436;2022-12-20T04:11:54;3.40;;;2.53;;
74044;SDS011;62389;51.412;5.436;2022-12-20T04:14:20;5.45;;;1.90;;
74044;SDS011;62389;51.412;5.436;2022-12-20T04:16:45;2.72;;;1.95;;
74044;SDS011;62389;51.412;5.436;2022-12-20T04:19:10;4.45;;;1.90;;
74044;SDS011;62389;51.412;5.436;2022-12-20T04:21:36;5.30;;;2.72;;
74044;SDS011;62389;51.412;5.436;2022-12-20T04:24:01;3.10;;;1.92;;
74044;SDS011;62389;51.412;5.436;2022-12-20T04:26:28;4.57;;;2.55;;
74044;SDS011;62389;51.412;5.436;2022-12-20T04:28:54;5.22;;;2.38;;
74044;SDS011;62389;51.412;5.436;2022-12-20T04:31:19;3.35;;;2.30;;
74044;SDS011;62389;51.412;5.436;2022-12-20T04:33:45;4.03;;;2.10;;
74044;SDS011;62389;51.412;5.436;2022-12-20T04:36:12;3.60;;;2.10;;
74044;SDS011;62389;51.412;5.436;2022-12-20T04:38:38;3.00;;;1.95;;
74044;SDS011;62389;51.412;5.436;2022-12-20T04:41:03;4.85;;;2.22;;
74044;SDS011;62389;51.412;5.436;2022-12-20T04:43:28;3.85;;;2.47;;
74044;SDS011;62389;51.412;5.436;2022-12-20T04:45:54;3.72;;;2.45;;
74044;SDS011;62389;51.412;5.436;2022-12-20T04:48:20;3.53;;;2.10;;
74044;SDS011;62389;51.412;5.436;2022-12-20T04:50:49;6.03;;;2.35;;
74044;SDS011;62389;51.412;5.436;2022-12-20T04:53:15;3.65;;;2.35;;
74044;SDS011;62389;51.412;5.436;2022-12-20T04:55:59;5.20;;;2.13;;
74044;SDS011;62389;51.412;5.436;2022-12-20T04:58:25;3.90;;;2.30;;
74044;SDS011;62389;51.412;5.436;2022-12-20T05:00:50;4.97;;;2.20;;
74044;SDS011;62389;51.412;5.436;2022-12-20T05:03:16;3.70;;;2.17;;
74044;SDS011;62389;51.412;5.436;2022-12-20T05:05:43;4.32;;;2.47;;
74044;SDS011;62389;51.412;5.436;2022-12-20T05:08:08;3.60;;;2.00;;
74044;SDS011;62389;51.412;5.436;2022-12-20T05:10:34;3.38;;;2.13;;
74044;SDS011;62389;51.412;5.436;2022-12-20T05:12:59;5.20;;;2.42;;
74044;SDS011;62389;51.412;5.436;2022-12-20T05:15:24;3.08;;;1.75;;
74044;SDS011;62389;51.412;5.436;2022-12-20T05:17:49;5.32;;;2.67;;
74044;SDS011;62389;51.412;5.436;2022-12-20T05:20:15;3.67;;;2.45;;
74044;SDS011;62389;51.412;5.436;2022-12-20T05:22:40;5.68;;;2.05;;
74044;SDS011;62389;51.412;5.436;2022-12-20T05:25:24;4.47;;;2.30;;
74044;SDS011;62389;51.412;5.436;2022-12-20T05:28:08;4.32;;;2.58;;
74044;SDS011;62389;51.412;5.436;2022-12-20T05:30:33;3.65;;;2.33;;
74044;SDS011;62389;51.412;5.436;2022-12-20T05:32:59;3.03;;;2.30;;
74044;SDS011;62389;51.412;5.436;2022-12-20T05:35:24;3.65;;;2.35;;
74044;SDS011;62389;51.412;5.436;2022-12-20T05:37:49;3.35;;;2.17;;
74044;SDS011;62389;51.412;5.436;2022-12-20T05:40:15;4.55;;;2.05;;
74044;SDS011;62389;51.412;5.436;2022-12-20T05:42:41;3.63;;;2.35;;
74044;SDS011;62389;51.412;5.436;2022-12-20T05:45:07;3.63;;;2.47;;
74044;SDS011;62389;51.412;5.436;2022-12-20T05:47:32;3.03;;;2.65;;
74044;SDS011;62389;51.412;5.436;2022-12-20T05:50:00;3.92;;;2.35;;
74044;SDS011;62389;51.412;5.436;2022-12-20T05:52:26;2.92;;;2.05;;
74044;SDS011;62389;51.412;5.436;2022-12-20T05:54:51;2.75;;;2.13;;
74044;SDS011;62389;51.412;5.436;2022-12-20T05:57:17;4.93;;;2.50;;
74044;SDS011;62389;51.412;5.436;2022-12-20T05:59:43;3.38;;;2.53;;
74044;SDS011;62389;51.412;5.436;2022-12-20T06:02:08;4.05;;;2.17;;
74044;SDS011;62389;51.412;5.436;2022-12-20T06:04:35;3.92;;;2.70;;
74044;SDS011;62389;51.412;5.436;2022-12-20T06:07:02;4.03;;;2.03;;
74044;SDS011;62389;51.412;5.436;2022-12-20T06:09:29;3.78;;;1.95;;
74044;SDS011;62389;51.412;5.436;2022-12-20T06:11:54;3.78;;;1.90;;
74044;SDS011;62389;51.412;5.436;2022-12-20T06:14:19;5.13;;;2.67;;
74044;SDS011;62389;51.412;5.436;2022-12-20T06:16:45;3.85;;;2.00;;
74044;SDS011;62389;51.412;5.436;2022-12-20T06:19:11;3.15;;;2.17;;
74044;SDS011;62389;51.412;5.436;2022-12-20T06:21:36;4.40;;;1.90;;
74044;SDS011;62389;51.412;5.436;2022-12-20T06:24:02;4.50;;;2.05;;
74044;SDS011;62389;51.412;5.436;2022-12-20T06:26:27;2.92;;;2.10;;
74044;SDS011;62389;51.412;5.436;2022-12-20T06:28:59;2.50;;;1.90;;
74044;SDS011;62389;51.412;5.436;2022-12-20T06:31:26;2.85;;;1.58;;
74044;SDS011;62389;51.412;5.436;2022-12-20T06:33:51;3.05;;;1.77;;
74044;SDS011;62389;51.412;5.436;2022-12-20T06:36:17;4.88;;;1.85;;
74044;SDS011;62389;51.412;5.436;2022-12-20T06:38:42;3.88;;;1.55;;
74044;SDS011;62389;51.412;5.436;2022-12-20T06:41:07;3.08;;;1.73;;
74044;SDS011;62389;51.412;5.436;2022-12-20T06:43:33;6.57;;;2.17;;
74044;SDS011;62389;51.412;5.436;2022-12-20T06:45:58;2.67;;;1.88;;
74044;SDS011;62389;51.412;5.436;2022-12-20T06:48:23;3.47;;;2.03;;
74044;SDS011;62389;51.412;5.436;2022-12-20T06:50:49;3.28;;;2.08;;
74044;SDS011;62389;51.412;5.436;2022-12-20T06:53:14;4.15;;;1.75;;
74044;SDS011;62389;51.412;5.436;2022-12-20T06:55:40;4.45;;;2.33;;
74044;SDS011;62389;51.412;5.436;2022-12-20T06:58:05;3.35;;;1.92;;
74044;SDS011;62389;51.412;5.436;2022-12-20T07:00:31;3.63;;;2.60;;
74044;SDS011;62389;51.412;5.436;2022-12-20T07:02:56;2.88;;;1.80;;
74044;SDS011;62389;51.412;5.436;2022-12-20T07:05:22;3.17;;;2.75;;
74044;SDS011;62389;51.412;5.436;2022-12-20T07:07:47;3.25;;;1.88;;
74044;SDS011;62389;51.412;5.436;2022-12-20T07:10:13;5.20;;;2.03;;
74044;SDS011;62389;51.412;5.436;2022-12-20T07:12:38;3.38;;;1.33;;
74044;SDS011;62389;51.412;5.436;2022-12-20T07:15:05;3.33;;;1.60;;
74044;SDS011;62389;51.412;5.436;2022-12-20T07:17:31;3.80;;;1.70;;
74044;SDS011;62389;51.412;5.436;2022-12-20T07:19:57;1.90;;;1.70;;
74044;SDS011;62389;51.412;5.436;2022-12-20T07:22:22;4.00;;;1.75;;
74044;SDS011;62389;51.412;5.436;2022-12-20T07:24:48;2.40;;;1.85;;
74044;SDS011;62389;51.412;5.436;2022-12-20T07:27:14;2.95;;;2.17;;
74044;SDS011;62389;51.412;5.436;2022-12-20T07:29:40;5.57;;;1.95;;
74044;SDS011;62389;51.412;5.436;2022-12-20T07:32:06;4.43;;;1.80;;
74044;SDS011;62389;51.412;5.436;2022-12-20T07:34:32;2.28;;;1.80;;
74044;SDS011;62389;51.412;5.436;2022-12-20T07:36:58;2.90;;;1.70;;
74044;SDS011;62389;51.412;5.436;2022-12-20T07:39:23;3.70;;;1.88;;
74044;SDS011;62389;51.412;5.436;2022-12-20T07:41:51;2.95;;;1.90;;
74044;SDS011;62389;51.412;5.436;2022-12-20T07:44:19;2.90;;;1.83;;
74044;SDS011;62389;51.412;5.436;2022-12-20T07:46:44;3.72;;;1.80;;
74044;SDS011;62389;51.412;5.436;2022-12-20T07:49:09;2.13;;;1.67;;
74044;SDS011;62389;51.412;5.436;2022-12-20T07:51:39;3.08;;;1.35;;
74044;SDS011;62389;51.412;5.436;2022-12-20T07:54:08;3.00;;;1.67;;
74044;SDS011;62389;51.412;5.436;2022-12-20T07:56:44;2.70;;;1.73;;
74044;SDS011;62389;51.412;5.436;2022-12-20T07:59:14;3.70;;;1.70;;
74044;SDS011;62389;51.412;5.436;2022-12-20T08:01:44;2.35;;;1.73;;
74044;SDS011;62389;51.412;5.436;2022-12-20T08:04:12;2.50;;;1.80;;
74044;SDS011;62389;51.412;5.436;2022-12-20T08:06:40;2.55;;;1.70;;
74044;SDS011;62389;51.412;5.436;2022-12-20T08:09:06;6.05;;;1.80;;
74044;SDS011;62389;51.412;5.436;2022-12-20T08:11:34;3.88;;;1.80;;
74044;SDS011;62389;51.412;5.436;2022-12-20T08:14:01;2.88;;;1.75;;
74044;SDS011;62389;51.412;5.436;2022-12-20T08:16:28;5.43;;;2.67;;
74044;SDS011;62389;51.412;5.436;2022-12-20T08:18:55;2.72;;;1.67;;
74044;SDS011;62389;51.412;5.436;2022-12-20T08:21:20;2.35;;;1.60;;
74044;SDS011;62389;51.412;5.436;2022-12-20T08:23:46;3.70;;;2.05;;
74044;SDS011;62389;51.412;5.436;2022-12-20T08:26:11;5.10;;;1.95;;
74044;SDS011;62389;51.412;5.436;2022-12-20T08:28:36;3.72;;;2.30;;
74044;SDS011;62389;51.412;5.436;2022-12-20T08:31:03;3.38;;;1.98;;
74044;SDS011;62389;51.412;5.436;2022-12-20T08:33:30;2.70;;;1.63;;
74044;SDS011;62389;51.412;5.436;2022-12-20T08:35:57;3.60;;;1.73;;
74044;SDS011;62389;51.412;5.436;2022-12-20T08:38:24;5.47;;;2.13;;
74044;SDS011;62389;51.412;5.436;2022-12-20T08:40:51;4.80;;;2.17;;
74044;SDS011;62389;51.412;5.436;2022-12-20T08:43:16;3.28;;;2.30;;
74044;SDS011;62389;51.412;5.436;2022-12-20T08:45:42;3.42;;;1.70;;
74044;SDS011;62389;51.412;5.436;2022-12-20T08:48:07;4.28;;;2.30;;
74044;SDS011;62389;51.412;5.436;2022-12-20T08:50:32;3.25;;;2.38;;
74044;SDS011;62389;51.412;5.436;2022-12-20T08:52:58;3.13;;;2.30;;
74044;SDS011;62389;51.412;5.436;2022-12-20T08:55:23;3.78;;;2.10;;
74044;SDS011;62389;51.412;5.436;2022-12-20T08:57:48;6.90;;;2.33;;
74044;SDS011;62389;51.412;5.436;2022-12-20T09:00:14;4.97;;;2.40;;
74044;SDS011;62389;51.412;5.436;2022-12-20T09:02:40;3.40;;;2.35;;
74044;SDS011;62389;51.412;5.436;2022-12-20T09:05:06;4.63;;;2.42;;
74044;SDS011;62389;51.412;5.436;2022-12-20T09:07:32;3.88;;;2.30;;
74044;SDS011;62389;51.412;5.436;2022-12-20T09:09:57;3.47;;;2.17;;
74044;SDS011;62389;51.412;5.436;2022-12-20T09:12:22;4.78;;;2.30;;
74044;SDS011;62389;51.412;5.436;2022-12-20T09:14:48;4.82;;;2.25;;
74044;SDS011;62389;51.412;5.436;2022-12-20T09:17:13;3.42;;;2.13;;
74044;SDS011;62389;51.412;5.436;2022-12-20T09:19:38;4.80;;;2.13;;
74044;SDS011;62389;51.412;5.436;2022-12-20T09:22:04;3.85;;;2.03;;
74044;SDS011;62389;51.412;5.436;2022-12-20T09:24:29;3.63;;;2.17;;
74044;SDS011;62389;51.412;5.436;2022-12-20T09:26:55;4.05;;;1.95;;
74044;SDS011;62389;51.412;5.436;2022-12-20T09:29:20;2.70;;;1.90;;
74044;SDS011;62389;51.412;5.436;2022-12-20T09:31:47;3.42;;;2.08;;
74044;SDS011;62389;51.412;5.436;2022-12-20T09:34:13;4.10;;;1.88;;
74044;SDS011;62389;51.412;5.436;2022-12-20T09:36:39;3.65;;;2.28;;
74044;SDS011;62389;51.412;5.436;2022-12-20T09:39:04;3.28;;;2.45;;
74044;SDS011;62389;51.412;5.436;2022-12-20T09:41:36;2.80;;;2.10;;
74044;SDS011;62389;51.412;5.436;2022-12-20T09:44:06;3.50;;;2.10;;
74044;SDS011;62389;51.412;5.436;2022-12-20T09:46:41;3.08;;;2.17;;
74044;SDS011;62389;51.412;5.436;2022-12-20T09:49:10;4.00;;;1.88;;
74044;SDS011;62389;51.412;5.436;2022-12-20T09:51:46;4.35;;;2.13;;
74044;SDS011;62389;51.412;5.436;2022-12-20T09:54:42;3.05;;;1.65;;
74044;SDS011;62389;51.412;5.436;2022-12-20T09:57:26;3.38;;;1.83;;
74044;SDS011;62389;51.412;5.436;2022-12-20T09:59:58;2.60;;;1.83;;
74044;SDS011;62389;51.412;5.436;2022-12-20T10:02:24;5.65;;;1.90;;
74044;SDS011;62389;51.412;5.436;2022-12-20T10:10:25;4.15;;;2.08;;
74044;SDS011;62389;51.412;5.436;2022-12-20T10:13:14;5.97;;;2.20;;
74044;SDS011;62389;51.412;5.436;2022-12-20T10:18:58;2.85;;;1.90;;
74044;SDS011;62389;51.412;5.436;2022-12-20T10:24:34;4.35;;;2.17;;
74044;SDS011;62389;51.412;5.436;2022-12-20T10:27:06;2.85;;;1.83;;
74044;SDS011;62389;51.412;5.436;2022-12-20T10:29:38;4.45;;;2.13;;
74044;SDS011;62389;51.412;5.436;2022-12-20T10:32:09;4.20;;;1.95;;
74044;SDS011;62389;51.412;5.436;2022-12-20T10:34:37;3.42;;;2.10;;
74044;SDS011;62389;51.412;5.436;2022-12-20T10:37:13;3.08;;;2.25;;
74044;SDS011;62389;51.412;5.436;2022-12-20T10:39:46;5.30;;;2.42;;
74044;SDS011;62389;51.412;5.436;2022-12-20T10:42:24;3.55;;;2.28;;
74044;SDS011;62389;51.412;5.436;2022-12-20T10:44:54;3.92;;;2.25;;
74044;SDS011;62389;51.412;5.436;2022-12-20T10:47:23;4.65;;;2.90;;
74044;SDS011;62389;51.412;5.436;2022-12-20T10:50:15;3.88;;;3.03;;
74044;SDS011;62389;51.412;5.436;2022-12-20T10:52:41;6.03;;;2.80;;
74044;SDS011;62389;51.412;5.436;2022-12-20T11:01:02;5.80;;;2.72;;
74044;SDS011;62389;51.412;5.436;2022-12-20T11:03:29;4.50;;;2.80;;
74044;SDS011;62389;51.412;5.436;2022-12-20T11:05:59;5.53;;;2.40;;
74044;SDS011;62389;51.412;5.436;2022-12-20T11:08:28;3.97;;;2.78;;
74044;SDS011;62389;51.412;5.436;2022-12-20T11:11:41;3.42;;;2.65;;
74044;SDS011;62389;51.412;5.436;2022-12-20T11:13:50;4.40;;;2.55;;
74044;SDS011;62389;51.412;5.436;2022-12-20T11:16:27;5.25;;;2.42;;
74044;SDS011;62389;51.412;5.436;2022-12-20T11:24:09;4.55;;;2.60;;
74044;SDS011;62389;51.412;5.436;2022-12-20T11:32:17;4.50;;;2.80;;
74044;SDS011;62389;51.412;5.436;2022-12-20T11:37:30;7.03;;;2.75;;
74044;SDS011;62389;51.412;5.436;2022-12-20T11:56:37;5.22;;;3.15;;
74044;SDS011;62389;51.412;5.436;2022-12-20T11:59:15;6.60;;;3.53;;
74044;SDS011;62389;51.412;5.436;2022-12-20T12:01:49;7.53;;;3.22;;
74044;SDS011;62389;51.412;5.436;2022-12-20T12:04:20;4.22;;;3.17;;
74044;SDS011;62389;51.412;5.436;2022-12-20T12:06:55;8.88;;;2.92;;
74044;SDS011;62389;51.412;5.436;2022-12-20T12:09:29;6.22;;;3.33;;
74044;SDS011;62389;51.412;5.436;2022-12-20T12:12:11;5.53;;;2.92;;
74044;SDS011;62389;51.412;5.436;2022-12-20T12:17:51;5.10;;;3.05;;
74044;SDS011;62389;51.412;5.436;2022-12-20T12:22:57;6.15;;;2.95;;
74044;SDS011;62389;51.412;5.436;2022-12-20T12:25:43;9.35;;;3.53;;
74044;SDS011;62389;51.412;5.436;2022-12-20T12:28:10;5.07;;;3.35;;
74044;SDS011;62389;51.412;5.436;2022-12-20T12:30:40;6.28;;;3.35;;
74044;SDS011;62389;51.412;5.436;2022-12-20T12:33:14;7.57;;;3.50;;
74044;SDS011;62389;51.412;5.436;2022-12-20T12:38:50;6.53;;;3.50;;
74044;SDS011;62389;51.412;5.436;2022-12-20T12:41:44;6.80;;;3.72;;
74044;SDS011;62389;51.412;5.436;2022-12-20T12:46:45;7.38;;;3.85;;
74044;SDS011;62389;51.412;5.436;2022-12-20T12:49:17;6.22;;;2.95;;
74044;SDS011;62389;51.412;5.436;2022-12-20T12:51:49;7.70;;;3.33;;
74044;SDS011;62389;51.412;5.436;2022-12-20T12:54:23;7.15;;;3.97;;
74044;SDS011;62389;51.412;5.436;2022-12-20T12:56:53;9.18;;;4.00;;
74044;SDS011;62389;51.412;5.436;2022-12-20T13:10:00;4.88;;;3.90;;
74044;SDS011;62389;51.412;5.436;2022-12-20T13:17:45;6.40;;;4.00;;
74044;SDS011;62389;51.412;5.436;2022-12-20T13:20:22;8.38;;;4.18;;
74044;SDS011;62389;51.412;5.436;2022-12-20T13:30:49;5.70;;;4.05;;
74044;SDS011;62389;51.412;5.436;2022-12-20T13:38:54;6.80;;;4.15;;
74044;SDS011;62389;51.412;5.436;2022-12-20T13:46:41;7.30;;;4.45;;
74044;SDS011;62389;51.412;5.436;2022-12-20T13:49:13;6.93;;;4.15;;
74044;SDS011;62389;51.412;5.436;2022-12-20T13:51:46;8.52;;;4.63;;
74044;SDS011;62389;51.412;5.436;2022-12-20T13:54:16;8.88;;;4.80;;
74044;SDS011;62389;51.412;5.436;2022-12-20T13:56:44;8.32;;;5.07;;
74044;SDS011;62389;51.412;5.436;2022-12-20T13:59:14;11.55;;;5.53;;
74044;SDS011;62389;51.412;5.436;2022-12-20T14:01:54;7.38;;;5.05;;
74044;SDS011;62389;51.412;5.436;2022-12-20T14:04:21;7.32;;;4.10;;
74044;SDS011;62389;51.412;5.436;2022-12-20T14:07:02;6.68;;;4.40;;
74044;SDS011;62389;51.412;5.436;2022-12-20T14:09:32;5.43;;;4.15;;
74044;SDS011;62389;51.412;5.436;2022-12-20T14:12:03;6.57;;;4.03;;
74044;SDS011;62389;51.412;5.436;2022-12-20T14:14:44;8.88;;;4.15;;
74044;SDS011;62389;51.412;5.436;2022-12-20T14:17:20;7.60;;;4.35;;
74044;SDS011;62389;51.412;5.436;2022-12-20T14:22:37;7.57;;;4.38;;
74044;SDS011;62389;51.412;5.436;2022-12-20T14:25:10;6.88;;;4.60;;
74044;SDS011;62389;51.412;5.436;2022-12-20T14:27:40;8.70;;;5.78;;
74044;SDS011;62389;51.412;5.436;2022-12-20T14:30:06;7.40;;;4.68;;
74044;SDS011;62389;51.412;5.436;2022-12-20T14:32:49;6.70;;;4.55;;
74044;SDS011;62389;51.412;5.436;2022-12-20T14:35:18;8.65;;;4.68;;
74044;SDS011;62389;51.412;5.436;2022-12-20T14:37:51;8.40;;;4.90;;
74044;SDS011;62389;51.412;5.436;2022-12-20T14:40:24;7.22;;;4.05;;
74044;SDS011;62389;51.412;5.436;2022-12-20T14:42:51;7.25;;;4.75;;
74044;SDS011;62389;51.412;5.436;2022-12-20T14:45:18;6.93;;;4.53;;
74044;SDS011;62389;51.412;5.436;2022-12-20T14:47:59;9.88;;;5.18;;
74044;SDS011;62389;51.412;5.436;2022-12-20T14:52:55;8.45;;;4.40;;
74044;SDS011;62389;51.412;5.436;2022-12-20T14:55:21;8.15;;;4.55;;
74044;SDS011;62389;51.412;5.436;2022-12-20T14:57:53;9.27;;;5.13;;
74044;SDS011;62389;51.412;5.436;2022-12-20T15:00:21;8.00;;;5.00;;
74044;SDS011;62389;51.412;5.436;2022-12-20T15:19:00;7.90;;;4.93;;
74044;SDS011;62389;51.412;5.436;2022-12-20T15:21:36;7.28;;;4.60;;
74044;SDS011;62389;51.412;5.436;2022-12-20T15:24:11;8.25;;;4.53;;
74044;SDS011;62389;51.412;5.436;2022-12-20T15:26:38;6.97;;;4.43;;
74044;SDS011;62389;51.412;5.436;2022-12-20T15:29:04;7.40;;;5.35;;
74044;SDS011;62389;51.412;5.436;2022-12-20T15:31:31;7.07;;;5.05;;
74044;SDS011;62389;51.412;5.436;2022-12-20T15:33:58;10.45;;;5.20;;
74044;SDS011;62389;51.412;5.436;2022-12-20T15:36:27;8.93;;;4.85;;
74044;SDS011;62389;51.412;5.436;2022-12-20T15:38:54;11.05;;;5.45;;
74044;SDS011;62389;51.412;5.436;2022-12-20T15:41:24;8.02;;;5.10;;
74044;SDS011;62389;51.412;5.436;2022-12-20T15:43:56;7.55;;;4.95;;
74044;SDS011;62389;51.412;5.436;2022-12-20T15:46:24;8.80;;;5.32;;
74044;SDS011;62389;51.412;5.436;2022-12-20T15:48:49;10.45;;;4.97;;
74044;SDS011;62389;51.412;5.436;2022-12-20T15:51:16;8.30;;;5.85;;
74044;SDS011;62389;51.412;5.436;2022-12-20T15:53:45;7.47;;;5.00;;
74044;SDS011;62389;51.412;5.436;2022-12-20T15:56:20;8.98;;;5.72;;
74044;SDS011;62389;51.412;5.436;2022-12-20T15:58:48;11.55;;;5.85;;
74044;SDS011;62389;51.412;5.436;2022-12-20T16:01:21;9.85;;;5.40;;
74044;SDS011;62389;51.412;5.436;2022-12-20T16:03:57;10.65;;;5.13;;
74044;SDS011;62389;51.412;5.436;2022-12-20T16:06:23;7.72;;;5.45;;
74044;SDS011;62389;51.412;5.436;2022-12-20T16:08:48;8.70;;;5.35;;
74044;SDS011;62389;51.412;5.436;2022-12-20T16:11:24;9.07;;;5.25;;
74044;SDS011;62389;51.412;5.436;2022-12-20T16:13:51;11.55;;;5.60;;
74044;SDS011;62389;51.412;5.436;2022-12-20T16:16:18;9.70;;;5.68;;
74044;SDS011;62389;51.412;5.436;2022-12-20T16:18:45;11.77;;;6.07;;
74044;SDS011;62389;51.412;5.436;2022-12-20T16:21:14;9.57;;;5.82;;
74044;SDS011;62389;51.412;5.436;2022-12-20T16:23:41;10.38;;;5.88;;
74044;SDS011;62389;51.412;5.436;2022-12-20T16:26:10;10.68;;;6.85;;
74044;SDS011;62389;51.412;5.436;2022-12-20T16:28:37;9.27;;;5.68;;
74044;SDS011;62389;51.412;5.436;2022-12-20T16:31:08;9.60;;;6.05;;
74044;SDS011;62389;51.412;5.436;2022-12-20T16:33:36;12.45;;;6.15;;
74044;SDS011;62389;51.412;5.436;2022-12-20T16:36:01;13.00;;;6.15;;
74044;SDS011;62389;51.412;5.436;2022-12-20T16:38:27;10.90;;;5.78;;
74044;SDS011;62389;51.412;5.436;2022-12-20T16:40:52;9.45;;;5.88;;
74044;SDS011;62389;51.412;5.436;2022-12-20T16:43:17;11.52;;;6.53;;
74044;SDS011;62389;51.412;5.436;2022-12-20T16:45:43;11.68;;;6.05;;
74044;SDS011;62389;51.412;5.436;2022-12-20T16:48:08;10.23;;;6.07;;
74044;SDS011;62389;51.412;5.436;2022-12-20T16:50:34;10.13;;;6.30;;
74044;SDS011;62389;51.412;5.436;2022-12-20T16:53:05;10.63;;;6.30;;
74044;SDS011;62389;51.412;5.436;2022-12-20T16:55:31;11.35;;;6.10;;
74044;SDS011;62389;51.412;5.436;2022-12-20T16:57:56;10.60;;;6.65;;
74044;SDS011;62389;51.412;5.436;2022-12-20T17:00:24;9.63;;;6.47;;
74044;SDS011;62389;51.412;5.436;2022-12-20T17:02:51;13.52;;;6.43;;
74044;SDS011;62389;51.412;5.436;2022-12-20T17:05:33;13.07;;;6.95;;